sensor_id;sensor_type;location;lat;lon;timestamp;temperature;humidity
19483;DHT22;9882;51.166;6.992;2023-03-01T00:01:51;2.10;99.90
19483;DHT22;9882;51.166;6.992;2023-03-01T00:04:19;2.10;99.90
19483;DHT22;9882;51.166;6.992;2023-03-01T00:06:48;2.10;99.90
19483;DHT22;9882;51.166;6.992;2023-03-01T00:09:17;2.10;99.90
19483;DHT22;9882;51.166;6.992;2023-03-01T00:11:47;2.00;99.90
19483;DHT22;9882;51.166;6.992;2023-03-01T00:14:20;2.00;99.90
19483;DHT22;9882;51.166;6.992;2023-03-01T00:16:49;2.00;99.90
19483;DHT22;9882;51.166;6.992;2023-03-01T00:19:20;2.00;99.90
19483;DHT22;9882;51.166;6.992;2023-03-01T00:21:50;2.00;99.90
19483;DHT22;9882;51.166;6.992;2023-03-01T00:24:19;1.90;99.90
19483;DHT22;9882;51.166;6.992;2023-03-01T00:26:48;1.90;99.90
19483;DHT22;9882;51.166;6.992;2023-03-01T00:29:23;2.00;99.90
19483;DHT22;9882;51.166;6.992;2023-03-01T00:31:52;2.00;99.90
19483;DHT22;9882;51.166;6.992;2023-03-01T00:34:21;1.90;99.90
19483;DHT22;9882;51.166;6.992;2023-03-01T00:36:50;1.90;99.90
19483;DHT22;9882;51.166;6.992;2023-03-01T00:39:20;1.90;99.90
19483;DHT22;9882;51.166;6.992;2023-03-01T00:41:49;1.90;99.90
19483;DHT22;9882;51.166;6.992;2023-03-01T00:44:18;1.90;99.90
19483;DHT22;9882;51.166;6.992;2023-03-01T00:46:49;1.90;99.90
19483;DHT22;9882;51.166;6.992;2023-03-01T00:49:18;1.80;99.90
19483;DHT22;9882;51.166;6.992;2023-03-01T00:51:47;1.80;99.90
19483;DHT22;9882;51.166;6.992;2023-03-01T00:54:17;1.80;99.90
19483;DHT22;9882;51.166;6.992;2023-03-01T00:56:47;2.00;99.90
19483;DHT22;9882;51.166;6.992;2023-03-01T00:59:17;1.80;99.90
19483;DHT22;9882;51.166;6.992;2023-03-01T01:01:46;1.80;99.90
19483;DHT22;9882;51.166;6.992;2023-03-01T01:04:17;1.80;99.90
19483;DHT22;9882;51.166;6.992;2023-03-01T01:06:46;1.70;99.90
19483;DHT22;9882;51.166;6.992;2023-03-01T01:09:17;1.90;99.90
19483;DHT22;9882;51.166;6.992;2023-03-01T01:11:49;1.70;99.90
19483;DHT22;9882;51.166;6.992;2023-03-01T01:14:19;1.70;99.90
19483;DHT22;9882;51.166;6.992;2023-03-01T01:16:48;1.70;99.90
19483;DHT22;9882;51.166;6.992;2023-03-01T01:19:20;1.70;99.90
19483;DHT22;9882;51.166;6.992;2023-03-01T01:21:50;1.70;99.90
19483;DHT22;9882;51.166;6.992;2023-03-01T01:24:19;1.70;99.90
19483;DHT22;9882;51.166;6.992;2023-03-01T01:26:49;1.60;99.90
19483;DHT22;9882;51.166;6.992;2023-03-01T01:29:18;1.60;99.90
19483;DHT22;9882;51.166;6.992;2023-03-01T01:31:47;1.60;99.90
19483;DHT22;9882;51.166;6.992;2023-03-01T01:34:20;1.60;99.90
19483;DHT22;9882;51.166;6.992;2023-03-01T01:36:51;1.60;99.90
19483;DHT22;9882;51.166;6.992;2023-03-01T01:39:21;1.60;99.90
19483;DHT22;9882;51.166;6.992;2023-03-01T01:41:51;1.60;99.90
19483;DHT22;9882;51.166;6.992;2023-03-01T01:44:22;1.50;99.90
19483;DHT22;9882;51.166;6.992;2023-03-01T01:46:54;1.50;99.90
19483;DHT22;9882;51.166;6.992;2023-03-01T01:49:30;1.50;99.90
19483;DHT22;9882;51.166;6.992;2023-03-01T01:52:06;1.40;99.90
19483;DHT22;9882;51.166;6.992;2023-03-01T01:54:42;1.60;99.90
19483;DHT22;9882;51.166;6.992;2023-03-01T01:57:16;1.50;99.90
19483;DHT22;9882;51.166;6.992;2023-03-01T01:59:50;1.40;99.90
19483;DHT22;9882;51.166;6.992;2023-03-01T02:02:20;1.40;99.90
19483;DHT22;9882;51.166;6.992;2023-03-01T02:04:55;1.40;99.90
19483;DHT22;9882;51.166;6.992;2023-03-01T02:07:28;1.20;99.90
19483;DHT22;9882;51.166;6.992;2023-03-01T02:09:58;1.10;99.90
19483;DHT22;9882;51.166;6.992;2023-03-01T02:12:27;1.00;99.90
19483;DHT22;9882;51.166;6.992;2023-03-01T02:14:57;1.00;99.90
19483;DHT22;9882;51.166;6.992;2023-03-01T02:17:26;1.20;99.90
19483;DHT22;9882;51.166;6.992;2023-03-01T02:20:06;1.00;99.90
19483;DHT22;9882;51.166;6.992;2023-03-01T02:22:43;1.10;99.90
19483;DHT22;9882;51.166;6.992;2023-03-01T02:25:24;1.20;99.90
19483;DHT22;9882;51.166;6.992;2023-03-01T02:27:58;1.20;99.90
19483;DHT22;9882;51.166;6.992;2023-03-01T02:30:33;1.10;99.90
19483;DHT22;9882;51.166;6.992;2023-03-01T02:33:04;1.10;99.90
19483;DHT22;9882;51.166;6.992;2023-03-01T02:35:35;1.30;99.90
19483;DHT22;9882;51.166;6.992;2023-03-01T02:38:07;1.40;99.90
19483;DHT22;9882;51.166;6.992;2023-03-01T02:40:38;1.20;99.90
19483;DHT22;9882;51.166;6.992;2023-03-01T02:43:10;1.20;99.90
19483;DHT22;9882;51.166;6.992;2023-03-01T02:45:48;1.20;99.90
19483;DHT22;9882;51.166;6.992;2023-03-01T02:48:19;1.20;99.90
19483;DHT22;9882;51.166;6.992;2023-03-01T02:51:03;1.20;99.90
19483;DHT22;9882;51.166;6.992;2023-03-01T02:53:40;1.30;99.90
19483;DHT22;9882;51.166;6.992;2023-03-01T02:56:11;1.10;99.90
19483;DHT22;9882;51.166;6.992;2023-03-01T02:58:42;1.10;99.90
19483;DHT22;9882;51.166;6.992;2023-03-01T03:01:18;1.10;99.90
19483;DHT22;9882;51.166;6.992;2023-03-01T03:03:47;1.10;99.90
19483;DHT22;9882;51.166;6.992;2023-03-01T03:06:17;1.10;99.90
19483;DHT22;9882;51.166;6.992;2023-03-01T03:08:47;1.10;99.90
19483;DHT22;9882;51.166;6.992;2023-03-01T03:11:16;1.00;99.90
19483;DHT22;9882;51.166;6.992;2023-03-01T03:13:45;1.10;99.90
19483;DHT22;9882;51.166;6.992;2023-03-01T03:16:19;1.00;99.90
19483;DHT22;9882;51.166;6.992;2023-03-01T03:18:52;1.00;99.90
19483;DHT22;9882;51.166;6.992;2023-03-01T03:21:21;1.00;99.90
19483;DHT22;9882;51.166;6.992;2023-03-01T03:23:50;1.00;99.90
19483;DHT22;9882;51.166;6.992;2023-03-01T03:26:19;0.70;99.90
19483;DHT22;9882;51.166;6.992;2023-03-01T03:28:48;0.70;99.90
19483;DHT22;9882;51.166;6.992;2023-03-01T03:31:19;0.60;99.90
19483;DHT22;9882;51.166;6.992;2023-03-01T03:33:51;0.50;99.90
19483;DHT22;9882;51.166;6.992;2023-03-01T03:36:22;0.50;99.90
19483;DHT22;9882;51.166;6.992;2023-03-01T03:38:54;0.10;99.90
19483;DHT22;9882;51.166;6.992;2023-03-01T03:41:23;0.20;99.90
19483;DHT22;9882;51.166;6.992;2023-03-01T03:43:52;0.10;99.90
19483;DHT22;9882;51.166;6.992;2023-03-01T03:46:23;0.20;99.90
19483;DHT22;9882;51.166;6.992;2023-03-01T03:48:52;0.20;99.90
19483;DHT22;9882;51.166;6.992;2023-03-01T03:51:22;0.00;99.90
19483;DHT22;9882;51.166;6.992;2023-03-01T03:53:51;0.10;99.90
19483;DHT22;9882;51.166;6.992;2023-03-01T03:56:20;0.20;99.90
19483;DHT22;9882;51.166;6.992;2023-03-01T03:58:55;0.30;99.90
19483;DHT22;9882;51.166;6.992;2023-03-01T04:01:25;0.40;99.90
19483;DHT22;9882;51.166;6.992;2023-03-01T04:03:54;0.00;99.90
19483;DHT22;9882;51.166;6.992;2023-03-01T04:06:23;0.20;99.90
19483;DHT22;9882;51.166;6.992;2023-03-01T04:08:53;0.40;99.90
19483;DHT22;9882;51.166;6.992;2023-03-01T04:11:27;0.20;99.90
19483;DHT22;9882;51.166;6.992;2023-03-01T04:13:58;0.20;99.90
19483;DHT22;9882;51.166;6.992;2023-03-01T04:16:29;0.10;99.90
19483;DHT22;9882;51.166;6.992;2023-03-01T04:18:59;0.30;99.90
19483;DHT22;9882;51.166;6.992;2023-03-01T04:21:28;0.20;99.90
19483;DHT22;9882;51.166;6.992;2023-03-01T04:23:57;0.40;99.90
19483;DHT22;9882;51.166;6.992;2023-03-01T04:26:26;0.30;99.90
19483;DHT22;9882;51.166;6.992;2023-03-01T04:28:56;-0.10;99.90
19483;DHT22;9882;51.166;6.992;2023-03-01T04:31:24;0.00;99.90
19483;DHT22;9882;51.166;6.992;2023-03-01T04:33:56;-0.40;99.90
19483;DHT22;9882;51.166;6.992;2023-03-01T04:36:27;-0.20;99.90
19483;DHT22;9882;51.166;6.992;2023-03-01T04:38:57;-0.20;99.90
19483;DHT22;9882;51.166;6.992;2023-03-01T04:41:26;-0.30;99.90
19483;DHT22;9882;51.166;6.992;2023-03-01T04:43:55;-0.30;99.90
19483;DHT22;9882;51.166;6.992;2023-03-01T04:46:24;-0.30;99.90
19483;DHT22;9882;51.166;6.992;2023-03-01T04:48:54;-0.10;99.90
19483;DHT22;9882;51.166;6.992;2023-03-01T04:51:23;-0.20;99.90
19483;DHT22;9882;51.166;6.992;2023-03-01T04:53:52;-0.50;99.90
19483;DHT22;9882;51.166;6.992;2023-03-01T04:56:21;-0.50;99.90
19483;DHT22;9882;51.166;6.992;2023-03-01T04:58:53;-0.50;99.90
19483;DHT22;9882;51.166;6.992;2023-03-01T05:01:31;-0.40;99.90
19483;DHT22;9882;51.166;6.992;2023-03-01T05:04:01;-0.60;99.90
19483;DHT22;9882;51.166;6.992;2023-03-01T05:06:32;-0.70;99.90
19483;DHT22;9882;51.166;6.992;2023-03-01T05:09:01;-0.40;99.90
19483;DHT22;9882;51.166;6.992;2023-03-01T05:11:30;-0.70;99.90
19483;DHT22;9882;51.166;6.992;2023-03-01T05:14:03;-0.80;99.90
19483;DHT22;9882;51.166;6.992;2023-03-01T05:16:32;-0.80;99.90
19483;DHT22;9882;51.166;6.992;2023-03-01T05:19:04;-0.70;99.90
19483;DHT22;9882;51.166;6.992;2023-03-01T05:21:38;-0.90;99.90
19483;DHT22;9882;51.166;6.992;2023-03-01T05:24:28;-0.80;99.90
19483;DHT22;9882;51.166;6.992;2023-03-01T05:26:57;-0.70;99.90
19483;DHT22;9882;51.166;6.992;2023-03-01T05:29:27;-0.60;99.90
19483;DHT22;9882;51.166;6.992;2023-03-01T05:31:57;-0.50;99.90
19483;DHT22;9882;51.166;6.992;2023-03-01T05:34:30;-0.60;99.90
19483;DHT22;9882;51.166;6.992;2023-03-01T05:36:59;-0.70;99.90
19483;DHT22;9882;51.166;6.992;2023-03-01T05:39:29;-0.80;99.90
19483;DHT22;9882;51.166;6.992;2023-03-01T05:42:00;-0.70;99.90
19483;DHT22;9882;51.166;6.992;2023-03-01T05:44:29;-0.80;99.90
19483;DHT22;9882;51.166;6.992;2023-03-01T05:46:58;-0.70;99.90
19483;DHT22;9882;51.166;6.992;2023-03-01T05:49:28;-0.80;99.90
19483;DHT22;9882;51.166;6.992;2023-03-01T05:51:57;-0.90;99.90
19483;DHT22;9882;51.166;6.992;2023-03-01T05:54:25;-0.80;99.90
19483;DHT22;9882;51.166;6.992;2023-03-01T05:56:54;-0.80;99.90
19483;DHT22;9882;51.166;6.992;2023-03-01T05:59:23;-0.70;99.90
19483;DHT22;9882;51.166;6.992;2023-03-01T06:01:51;-0.60;99.90
19483;DHT22;9882;51.166;6.992;2023-03-01T06:04:20;-0.60;99.90
19483;DHT22;9882;51.166;6.992;2023-03-01T06:06:50;-0.60;99.90
19483;DHT22;9882;51.166;6.992;2023-03-01T06:09:18;-0.50;99.90
19483;DHT22;9882;51.166;6.992;2023-03-01T06:11:47;-0.40;99.90
19483;DHT22;9882;51.166;6.992;2023-03-01T06:14:15;-0.50;99.90
19483;DHT22;9882;51.166;6.992;2023-03-01T06:16:44;-0.40;99.90
19483;DHT22;9882;51.166;6.992;2023-03-01T06:19:12;-0.30;99.90
19483;DHT22;9882;51.166;6.992;2023-03-01T06:21:41;-0.40;99.90
19483;DHT22;9882;51.166;6.992;2023-03-01T06:24:10;-0.40;99.90
19483;DHT22;9882;51.166;6.992;2023-03-01T06:26:39;-0.50;99.90
19483;DHT22;9882;51.166;6.992;2023-03-01T06:29:07;-0.60;99.90
19483;DHT22;9882;51.166;6.992;2023-03-01T06:31:36;-0.70;99.90
19483;DHT22;9882;51.166;6.992;2023-03-01T06:34:05;-0.60;99.90
19483;DHT22;9882;51.166;6.992;2023-03-01T06:36:33;-0.50;99.90
19483;DHT22;9882;51.166;6.992;2023-03-01T06:39:02;-0.60;99.90
19483;DHT22;9882;51.166;6.992;2023-03-01T06:41:33;-0.50;99.90
19483;DHT22;9882;51.166;6.992;2023-03-01T06:44:01;-0.60;99.90
19483;DHT22;9882;51.166;6.992;2023-03-01T06:46:30;-0.60;99.90
19483;DHT22;9882;51.166;6.992;2023-03-01T06:48:59;-0.60;99.90
19483;DHT22;9882;51.166;6.992;2023-03-01T06:51:28;-0.60;99.90
19483;DHT22;9882;51.166;6.992;2023-03-01T06:53:56;-0.60;99.90
19483;DHT22;9882;51.166;6.992;2023-03-01T06:56:27;-0.60;99.90
19483;DHT22;9882;51.166;6.992;2023-03-01T06:58:57;-0.50;99.90
19483;DHT22;9882;51.166;6.992;2023-03-01T07:01:26;-0.50;99.90
19483;DHT22;9882;51.166;6.992;2023-03-01T07:03:55;-0.40;99.90
19483;DHT22;9882;51.166;6.992;2023-03-01T07:06:23;-0.30;99.90
19483;DHT22;9882;51.166;6.992;2023-03-01T07:08:51;-0.30;99.90
19483;DHT22;9882;51.166;6.992;2023-03-01T07:11:20;-0.30;99.90
19483;DHT22;9882;51.166;6.992;2023-03-01T07:13:48;-0.30;99.90
19483;DHT22;9882;51.166;6.992;2023-03-01T07:16:18;-0.30;99.90
19483;DHT22;9882;51.166;6.992;2023-03-01T07:18:47;-0.30;99.90
19483;DHT22;9882;51.166;6.992;2023-03-01T07:21:16;-0.20;99.90
19483;DHT22;9882;51.166;6.992;2023-03-01T07:23:47;-0.20;99.90
19483;DHT22;9882;51.166;6.992;2023-03-01T07:26:15;-0.20;99.90
19483;DHT22;9882;51.166;6.992;2023-03-01T07:28:44;-0.20;99.90
19483;DHT22;9882;51.166;6.992;2023-03-01T07:31:13;-0.10;99.90
19483;DHT22;9882;51.166;6.992;2023-03-01T07:33:43;-0.10;99.90
19483;DHT22;9882;51.166;6.992;2023-03-01T07:36:12;-0.10;99.90
19483;DHT22;9882;51.166;6.992;2023-03-01T07:38:41;-0.10;99.90
19483;DHT22;9882;51.166;6.992;2023-03-01T07:41:09;-0.10;99.90
19483;DHT22;9882;51.166;6.992;2023-03-01T07:43:37;0.00;99.90
19483;DHT22;9882;51.166;6.992;2023-03-01T07:46:06;0.00;99.90
19483;DHT22;9882;51.166;6.992;2023-03-01T07:48:34;0.00;99.90
19483;DHT22;9882;51.166;6.992;2023-03-01T07:51:05;0.10;99.90
19483;DHT22;9882;51.166;6.992;2023-03-01T07:53:34;0.20;99.90
19483;DHT22;9882;51.166;6.992;2023-03-01T07:56:04;0.20;99.90
19483;DHT22;9882;51.166;6.992;2023-03-01T07:58:34;0.20;99.90
19483;DHT22;9882;51.166;6.992;2023-03-01T08:01:03;0.20;99.90
19483;DHT22;9882;51.166;6.992;2023-03-01T08:03:32;0.20;99.90
19483;DHT22;9882;51.166;6.992;2023-03-01T08:06:02;0.30;99.90
19483;DHT22;9882;51.166;6.992;2023-03-01T08:08:33;0.40;99.90
19483;DHT22;9882;51.166;6.992;2023-03-01T08:11:03;0.40;99.90
19483;DHT22;9882;51.166;6.992;2023-03-01T08:13:31;0.40;99.90
19483;DHT22;9882;51.166;6.992;2023-03-01T08:16:01;0.40;99.90
19483;DHT22;9882;51.166;6.992;2023-03-01T08:18:30;0.50;99.90
19483;DHT22;9882;51.166;6.992;2023-03-01T08:21:02;0.50;99.90
19483;DHT22;9882;51.166;6.992;2023-03-01T08:23:32;0.60;99.90
19483;DHT22;9882;51.166;6.992;2023-03-01T08:26:05;0.60;99.90
19483;DHT22;9882;51.166;6.992;2023-03-01T08:28:35;0.60;99.90
19483;DHT22;9882;51.166;6.992;2023-03-01T08:31:13;0.60;99.90
19483;DHT22;9882;51.166;6.992;2023-03-01T08:33:42;0.70;99.90
19483;DHT22;9882;51.166;6.992;2023-03-01T08:36:10;0.50;99.90
19483;DHT22;9882;51.166;6.992;2023-03-01T08:38:40;0.60;99.90
19483;DHT22;9882;51.166;6.992;2023-03-01T08:41:08;0.60;99.90
19483;DHT22;9882;51.166;6.992;2023-03-01T08:43:37;0.70;99.90
19483;DHT22;9882;51.166;6.992;2023-03-01T08:46:05;0.60;99.90
19483;DHT22;9882;51.166;6.992;2023-03-01T08:48:34;0.60;99.90
19483;DHT22;9882;51.166;6.992;2023-03-01T08:51:09;0.50;99.90
19483;DHT22;9882;51.166;6.992;2023-03-01T08:53:37;0.80;99.90
19483;DHT22;9882;51.166;6.992;2023-03-01T08:56:07;0.80;99.90
19483;DHT22;9882;51.166;6.992;2023-03-01T08:58:36;1.00;99.90
19483;DHT22;9882;51.166;6.992;2023-03-01T09:01:07;1.00;99.90
19483;DHT22;9882;51.166;6.992;2023-03-01T09:03:37;1.10;99.90
19483;DHT22;9882;51.166;6.992;2023-03-01T09:06:06;1.00;99.90
19483;DHT22;9882;51.166;6.992;2023-03-01T09:08:36;1.20;99.90
19483;DHT22;9882;51.166;6.992;2023-03-01T09:11:08;1.10;99.90
19483;DHT22;9882;51.166;6.992;2023-03-01T09:13:37;1.10;99.90
19483;DHT22;9882;51.166;6.992;2023-03-01T09:16:08;1.10;99.90
19483;DHT22;9882;51.166;6.992;2023-03-01T09:18:37;1.30;99.90
19483;DHT22;9882;51.166;6.992;2023-03-01T09:21:07;1.20;99.90
19483;DHT22;9882;51.166;6.992;2023-03-01T09:23:36;1.10;99.90
19483;DHT22;9882;51.166;6.992;2023-03-01T09:26:08;1.30;99.90
19483;DHT22;9882;51.166;6.992;2023-03-01T09:28:37;1.30;99.90
19483;DHT22;9882;51.166;6.992;2023-03-01T09:31:06;1.30;99.90
19483;DHT22;9882;51.166;6.992;2023-03-01T09:33:34;1.30;99.90
19483;DHT22;9882;51.166;6.992;2023-03-01T09:36:04;1.40;99.90
19483;DHT22;9882;51.166;6.992;2023-03-01T09:38:34;1.60;99.90
19483;DHT22;9882;51.166;6.992;2023-03-01T09:41:08;1.60;99.90
19483;DHT22;9882;51.166;6.992;2023-03-01T09:43:44;1.50;99.90
19483;DHT22;9882;51.166;6.992;2023-03-01T09:46:15;1.20;99.90
19483;DHT22;9882;51.166;6.992;2023-03-01T09:48:49;1.30;99.90
19483;DHT22;9882;51.166;6.992;2023-03-01T09:51:24;1.30;99.90
19483;DHT22;9882;51.166;6.992;2023-03-01T09:53:55;1.20;99.90
19483;DHT22;9882;51.166;6.992;2023-03-01T09:56:31;1.20;99.90
19483;DHT22;9882;51.166;6.992;2023-03-01T09:59:11;1.60;99.90
19483;DHT22;9882;51.166;6.992;2023-03-01T10:01:46;1.80;99.90
19483;DHT22;9882;51.166;6.992;2023-03-01T10:04:27;1.70;99.90
19483;DHT22;9882;51.166;6.992;2023-03-01T10:07:07;1.70;99.90
19483;DHT22;9882;51.166;6.992;2023-03-01T10:09:42;2.00;99.90
19483;DHT22;9882;51.166;6.992;2023-03-01T10:12:15;2.10;99.90
19483;DHT22;9882;51.166;6.992;2023-03-01T10:14:53;2.10;99.90
19483;DHT22;9882;51.166;6.992;2023-03-01T10:17:28;2.30;99.90
19483;DHT22;9882;51.166;6.992;2023-03-01T10:20:12;2.20;99.90
19483;DHT22;9882;51.166;6.992;2023-03-01T10:22:42;2.30;99.90
19483;DHT22;9882;51.166;6.992;2023-03-01T10:25:14;2.40;99.90
19483;DHT22;9882;51.166;6.992;2023-03-01T10:27:51;2.00;99.90
19483;DHT22;9882;51.166;6.992;2023-03-01T10:30:28;1.60;99.90
19483;DHT22;9882;51.166;6.992;2023-03-01T10:32:58;2.00;99.90
19483;DHT22;9882;51.166;6.992;2023-03-01T10:35:32;2.00;99.90
19483;DHT22;9882;51.166;6.992;2023-03-01T10:38:04;2.20;99.90
19483;DHT22;9882;51.166;6.992;2023-03-01T10:40:34;2.20;99.90
19483;DHT22;9882;51.166;6.992;2023-03-01T10:43:05;2.50;99.90
19483;DHT22;9882;51.166;6.992;2023-03-01T10:45:37;2.40;99.90
19483;DHT22;9882;51.166;6.992;2023-03-01T10:48:12;2.70;99.90
19483;DHT22;9882;51.166;6.992;2023-03-01T10:50:43;3.00;99.90
19483;DHT22;9882;51.166;6.992;2023-03-01T10:53:22;2.90;99.90
19483;DHT22;9882;51.166;6.992;2023-03-01T10:55:58;3.10;99.90
19483;DHT22;9882;51.166;6.992;2023-03-01T10:58:29;3.10;99.90
19483;DHT22;9882;51.166;6.992;2023-03-01T11:01:00;2.90;99.90
19483;DHT22;9882;51.166;6.992;2023-03-01T11:03:30;2.70;99.90
19483;DHT22;9882;51.166;6.992;2023-03-01T11:06:03;3.00;99.90
19483;DHT22;9882;51.166;6.992;2023-03-01T11:08:40;3.10;99.90
19483;DHT22;9882;51.166;6.992;2023-03-01T11:11:24;3.20;99.90
19483;DHT22;9882;51.166;6.992;2023-03-01T11:13:56;2.80;99.90
19483;DHT22;9882;51.166;6.992;2023-03-01T11:16:34;3.10;99.90
19483;DHT22;9882;51.166;6.992;2023-03-01T11:19:27;3.20;99.90
19483;DHT22;9882;51.166;6.992;2023-03-01T11:22:00;3.60;99.90
19483;DHT22;9882;51.166;6.992;2023-03-01T11:24:38;3.50;99.90
19483;DHT22;9882;51.166;6.992;2023-03-01T11:27:17;3.10;99.90
19483;DHT22;9882;51.166;6.992;2023-03-01T11:29:50;3.40;99.90
19483;DHT22;9882;51.166;6.992;2023-03-01T11:32:25;3.80;99.90
19483;DHT22;9882;51.166;6.992;2023-03-01T11:34:57;3.80;99.90
19483;DHT22;9882;51.166;6.992;2023-03-01T11:37:33;3.30;99.90
19483;DHT22;9882;51.166;6.992;2023-03-01T11:40:12;3.30;99.90
19483;DHT22;9882;51.166;6.992;2023-03-01T11:42:49;3.60;99.90
19483;DHT22;9882;51.166;6.992;2023-03-01T11:45:20;3.70;99.90
19483;DHT22;9882;51.166;6.992;2023-03-01T11:48:12;3.40;99.90
19483;DHT22;9882;51.166;6.992;2023-03-01T11:50:49;4.00;99.90
19483;DHT22;9882;51.166;6.992;2023-03-01T11:53:34;4.20;99.90
19483;DHT22;9882;51.166;6.992;2023-03-01T11:56:15;4.40;99.90
19483;DHT22;9882;51.166;6.992;2023-03-01T11:59:20;3.80;99.90
19483;DHT22;9882;51.166;6.992;2023-03-01T12:02:12;4.10;99.90
19483;DHT22;9882;51.166;6.992;2023-03-01T12:05:13;3.80;99.90
19483;DHT22;9882;51.166;6.992;2023-03-01T12:07:51;4.10;99.90
19483;DHT22;9882;51.166;6.992;2023-03-01T12:10:26;4.40;99.90
19483;DHT22;9882;51.166;6.992;2023-03-01T12:13:18;4.20;99.90
19483;DHT22;9882;51.166;6.992;2023-03-01T12:16:06;3.60;99.90
19483;DHT22;9882;51.166;6.992;2023-03-01T12:19:05;4.80;99.90
19483;DHT22;9882;51.166;6.992;2023-03-01T12:21:46;4.20;99.90
19483;DHT22;9882;51.166;6.992;2023-03-01T12:27:37;3.70;99.90
19483;DHT22;9882;51.166;6.992;2023-03-01T12:30:24;3.60;99.90
19483;DHT22;9882;51.166;6.992;2023-03-01T12:33:02;3.70;99.90
19483;DHT22;9882;51.166;6.992;2023-03-01T12:36:02;4.30;99.90
19483;DHT22;9882;51.166;6.992;2023-03-01T12:38:42;4.70;99.90
19483;DHT22;9882;51.166;6.992;2023-03-01T12:41:35;4.10;99.90
19483;DHT22;9882;51.166;6.992;2023-03-01T12:44:29;4.00;99.90
19483;DHT22;9882;51.166;6.992;2023-03-01T12:47:26;4.10;99.90
19483;DHT22;9882;51.166;6.992;2023-03-01T12:50:03;4.30;99.90
19483;DHT22;9882;51.166;6.992;2023-03-01T12:52:38;4.70;99.90
19483;DHT22;9882;51.166;6.992;2023-03-01T12:55:23;4.90;99.90
19483;DHT22;9882;51.166;6.992;2023-03-01T12:58:00;4.70;99.90
19483;DHT22;9882;51.166;6.992;2023-03-01T13:00:35;5.30;99.90
19483;DHT22;9882;51.166;6.992;2023-03-01T13:03:13;4.90;99.90
19483;DHT22;9882;51.166;6.992;2023-03-01T13:05:56;4.70;99.90
19483;DHT22;9882;51.166;6.992;2023-03-01T13:08:33;5.20;99.90
19483;DHT22;9882;51.166;6.992;2023-03-01T13:11:16;4.40;99.90
19483;DHT22;9882;51.166;6.992;2023-03-01T13:13:45;5.30;99.90
19483;DHT22;9882;51.166;6.992;2023-03-01T13:16:39;5.00;99.90
19483;DHT22;9882;51.166;6.992;2023-03-01T13:19:13;4.80;99.90
19483;DHT22;9882;51.166;6.992;2023-03-01T13:21:43;4.90;99.90
19483;DHT22;9882;51.166;6.992;2023-03-01T13:24:29;5.00;99.90
19483;DHT22;9882;51.166;6.992;2023-03-01T13:27:27;4.80;99.90
19483;DHT22;9882;51.166;6.992;2023-03-01T13:29:59;5.00;99.90
19483;DHT22;9882;51.166;6.992;2023-03-01T13:32:31;5.10;99.90
19483;DHT22;9882;51.166;6.992;2023-03-01T13:35:43;4.80;99.90
19483;DHT22;9882;51.166;6.992;2023-03-01T13:38:38;5.20;99.90
19483;DHT22;9882;51.166;6.992;2023-03-01T13:41:07;5.10;99.90
19483;DHT22;9882;51.166;6.992;2023-03-01T13:43:38;4.90;99.90
19483;DHT22;9882;51.166;6.992;2023-03-01T13:46:12;5.30;99.90
19483;DHT22;9882;51.166;6.992;2023-03-01T13:48:45;6.00;99.90
19483;DHT22;9882;51.166;6.992;2023-03-01T13:51:15;5.50;99.90
19483;DHT22;9882;51.166;6.992;2023-03-01T13:53:48;5.10;99.90
19483;DHT22;9882;51.166;6.992;2023-03-01T13:56:19;5.40;99.90
19483;DHT22;9882;51.166;6.992;2023-03-01T13:58:53;5.80;99.90
19483;DHT22;9882;51.166;6.992;2023-03-01T14:01:27;5.90;99.90
19483;DHT22;9882;51.166;6.992;2023-03-01T14:03:56;5.90;99.90
19483;DHT22;9882;51.166;6.992;2023-03-01T14:06:27;5.80;99.90
19483;DHT22;9882;51.166;6.992;2023-03-01T14:09:04;5.70;99.90
19483;DHT22;9882;51.166;6.992;2023-03-01T14:12:04;5.90;99.90
19483;DHT22;9882;51.166;6.992;2023-03-01T14:14:58;5.80;99.90
19483;DHT22;9882;51.166;6.992;2023-03-01T14:17:44;6.00;99.90
19483;DHT22;9882;51.166;6.992;2023-03-01T14:20:18;6.10;99.90
19483;DHT22;9882;51.166;6.992;2023-03-01T14:22:48;6.50;99.90
19483;DHT22;9882;51.166;6.992;2023-03-01T14:25:25;7.10;99.90
19483;DHT22;9882;51.166;6.992;2023-03-01T14:28:03;7.90;99.90
19483;DHT22;9882;51.166;6.992;2023-03-01T14:30:37;7.80;99.90
19483;DHT22;9882;51.166;6.992;2023-03-01T14:33:18;8.30;99.90
19483;DHT22;9882;51.166;6.992;2023-03-01T14:35:58;8.10;99.90
19483;DHT22;9882;51.166;6.992;2023-03-01T14:38:32;8.90;99.90
19483;DHT22;9882;51.166;6.992;2023-03-01T14:41:03;9.00;99.90
19483;DHT22;9882;51.166;6.992;2023-03-01T14:43:33;9.30;99.90
19483;DHT22;9882;51.166;6.992;2023-03-01T14:46:03;9.00;99.90
19483;DHT22;9882;51.166;6.992;2023-03-01T14:48:32;9.20;99.90
19483;DHT22;9882;51.166;6.992;2023-03-01T14:51:00;9.50;99.90
19483;DHT22;9882;51.166;6.992;2023-03-01T14:53:29;9.80;99.90
19483;DHT22;9882;51.166;6.992;2023-03-01T14:56:14;9.70;99.90
19483;DHT22;9882;51.166;6.992;2023-03-01T14:58:44;10.20;99.90
19483;DHT22;9882;51.166;6.992;2023-03-01T15:01:17;10.10;99.90
19483;DHT22;9882;51.166;6.992;2023-03-01T15:03:47;10.30;99.90
19483;DHT22;9882;51.166;6.992;2023-03-01T15:06:19;9.80;99.90
19483;DHT22;9882;51.166;6.992;2023-03-01T15:08:50;9.60;99.90
19483;DHT22;9882;51.166;6.992;2023-03-01T15:11:22;9.90;99.90
19483;DHT22;9882;51.166;6.992;2023-03-01T15:13:52;10.40;99.90
19483;DHT22;9882;51.166;6.992;2023-03-01T15:16:23;10.10;99.50
19483;DHT22;9882;51.166;6.992;2023-03-01T15:18:54;9.90;99.90
19483;DHT22;9882;51.166;6.992;2023-03-01T15:21:26;10.10;99.90
19483;DHT22;9882;51.166;6.992;2023-03-01T15:23:59;10.00;99.90
19483;DHT22;9882;51.166;6.992;2023-03-01T15:26:35;9.90;99.90
19483;DHT22;9882;51.166;6.992;2023-03-01T15:29:15;10.10;97.00
19483;DHT22;9882;51.166;6.992;2023-03-01T15:31:57;9.80;99.50
19483;DHT22;9882;51.166;6.992;2023-03-01T15:34:29;9.50;99.60
19483;DHT22;9882;51.166;6.992;2023-03-01T15:37:00;9.30;99.30
19483;DHT22;9882;51.166;6.992;2023-03-01T15:39:38;8.90;99.90
19483;DHT22;9882;51.166;6.992;2023-03-01T15:42:09;8.80;99.90
19483;DHT22;9882;51.166;6.992;2023-03-01T15:44:40;8.60;99.90
19483;DHT22;9882;51.166;6.992;2023-03-01T15:47:26;8.70;99.90
19483;DHT22;9882;51.166;6.992;2023-03-01T15:49:55;8.30;99.90
19483;DHT22;9882;51.166;6.992;2023-03-01T15:52:28;8.30;99.90
19483;DHT22;9882;51.166;6.992;2023-03-01T15:55:00;8.30;99.90
19483;DHT22;9882;51.166;6.992;2023-03-01T15:57:29;8.20;99.90
19483;DHT22;9882;51.166;6.992;2023-03-01T15:59:58;8.30;99.90
19483;DHT22;9882;51.166;6.992;2023-03-01T16:02:28;8.50;99.90
19483;DHT22;9882;51.166;6.992;2023-03-01T16:04:57;8.70;99.90
19483;DHT22;9882;51.166;6.992;2023-03-01T16:07:25;8.90;99.90
19483;DHT22;9882;51.166;6.992;2023-03-01T16:09:55;9.20;99.90
19483;DHT22;9882;51.166;6.992;2023-03-01T16:12:23;9.00;99.90
19483;DHT22;9882;51.166;6.992;2023-03-01T16:14:52;8.70;99.90
19483;DHT22;9882;51.166;6.992;2023-03-01T16:17:21;8.30;99.90
19483;DHT22;9882;51.166;6.992;2023-03-01T16:19:51;8.10;99.90
19483;DHT22;9882;51.166;6.992;2023-03-01T16:22:19;8.00;99.90
19483;DHT22;9882;51.166;6.992;2023-03-01T16:24:52;7.90;99.90
19483;DHT22;9882;51.166;6.992;2023-03-01T16:27:20;7.60;99.90
19483;DHT22;9882;51.166;6.992;2023-03-01T16:29:49;7.30;99.90
19483;DHT22;9882;51.166;6.992;2023-03-01T16:32:18;7.10;99.90
19483;DHT22;9882;51.166;6.992;2023-03-01T16:34:47;7.00;99.90
19483;DHT22;9882;51.166;6.992;2023-03-01T16:37:17;6.90;99.90